sensor_id;sensor_type;location;lat;lon;timestamp;P1;durP1;ratioP1;P2;durP2;ratioP2
72286;SDS011;60221;45.696;16.076;2022-12-29T00:00:03;14.18;;;5.97;;
72286;SDS011;60221;45.696;16.076;2022-12-29T00:02:38;14.98;;;5.62;;
72286;SDS011;60221;45.696;16.076;2022-12-29T00:05:05;16.25;;;6.40;;
72286;SDS011;60221;45.696;16.076;2022-12-29T00:07:32;13.40;;;4.72;;
72286;SDS011;60221;45.696;16.076;2022-12-29T00:09:58;17.30;;;8.07;;
72286;SDS011;60221;45.696;16.076;2022-12-29T00:12:24;14.80;;;5.50;;
72286;SDS011;60221;45.696;16.076;2022-12-29T00:14:53;13.93;;;5.45;;
72286;SDS011;60221;45.696;16.076;2022-12-29T00:17:36;19.32;;;7.72;;
72286;SDS011;60221;45.696;16.076;2022-12-29T00:20:03;20.77;;;9.00;;
72286;SDS011;60221;45.696;16.076;2022-12-29T00:22:49;18.83;;;7.77;;
72286;SDS011;60221;45.696;16.076;2022-12-29T00:25:35;19.30;;;7.87;;
72286;SDS011;60221;45.696;16.076;2022-12-29T00:28:20;25.52;;;9.93;;
72286;SDS011;60221;45.696;16.076;2022-12-29T00:30:48;17.82;;;7.62;;
72286;SDS011;60221;45.696;16.076;2022-12-29T00:33:33;20.25;;;7.75;;
72286;SDS011;60221;45.696;16.076;2022-12-29T00:36:19;26.97;;;11.30;;
72286;SDS011;60221;45.696;16.076;2022-12-29T00:39:00;29.98;;;12.05;;
72286;SDS011;60221;45.696;16.076;2022-12-29T00:41:48;22.30;;;8.68;;
72286;SDS011;60221;45.696;16.076;2022-12-29T00:44:33;22.50;;;8.95;;
72286;SDS011;60221;45.696;16.076;2022-12-29T00:46:59;22.93;;;9.48;;
72286;SDS011;60221;45.696;16.076;2022-12-29T00:49:27;20.57;;;9.10;;
72286;SDS011;60221;45.696;16.076;2022-12-29T00:52:06;21.65;;;9.08;;
72286;SDS011;60221;45.696;16.076;2022-12-29T00:54:37;23.55;;;9.53;;
72286;SDS011;60221;45.696;16.076;2022-12-29T00:57:06;16.48;;;8.13;;
72286;SDS011;60221;45.696;16.076;2022-12-29T00:59:35;21.95;;;9.55;;
72286;SDS011;60221;45.696;16.076;2022-12-29T01:02:03;21.00;;;8.03;;
72286;SDS011;60221;45.696;16.076;2022-12-29T01:04:30;23.22;;;9.05;;
72286;SDS011;60221;45.696;16.076;2022-12-29T01:06:56;27.32;;;8.63;;
72286;SDS011;60221;45.696;16.076;2022-12-29T01:09:22;30.88;;;11.30;;
72286;SDS011;60221;45.696;16.076;2022-12-29T01:12:07;29.15;;;12.15;;
72286;SDS011;60221;45.696;16.076;2022-12-29T01:14:35;24.00;;;9.43;;
72286;SDS011;60221;45.696;16.076;2022-12-29T01:17:03;26.82;;;11.75;;
72286;SDS011;60221;45.696;16.076;2022-12-29T01:19:31;25.88;;;9.85;;
72286;SDS011;60221;45.696;16.076;2022-12-29T01:21:58;20.30;;;8.95;;
72286;SDS011;60221;45.696;16.076;2022-12-29T01:24:24;24.50;;;11.00;;
72286;SDS011;60221;45.696;16.076;2022-12-29T01:26:51;33.60;;;11.67;;
72286;SDS011;60221;45.696;16.076;2022-12-29T01:29:19;24.60;;;10.65;;
72286;SDS011;60221;45.696;16.076;2022-12-29T01:31:46;33.80;;;14.45;;
72286;SDS011;60221;45.696;16.076;2022-12-29T01:34:12;29.42;;;12.65;;
72286;SDS011;60221;45.696;16.076;2022-12-29T01:36:38;39.67;;;15.58;;
72286;SDS011;60221;45.696;16.076;2022-12-29T01:39:04;36.40;;;15.17;;
72286;SDS011;60221;45.696;16.076;2022-12-29T01:41:31;37.23;;;14.07;;
72286;SDS011;60221;45.696;16.076;2022-12-29T01:43:58;29.90;;;12.85;;
72286;SDS011;60221;45.696;16.076;2022-12-29T01:49:12;33.00;;;14.15;;
72286;SDS011;60221;45.696;16.076;2022-12-29T01:51:55;37.87;;;15.83;;
72286;SDS011;60221;45.696;16.076;2022-12-29T01:54:39;43.52;;;17.75;;
72286;SDS011;60221;45.696;16.076;2022-12-29T01:57:15;37.23;;;15.32;;
72286;SDS011;60221;45.696;16.076;2022-12-29T01:59:52;46.85;;;20.97;;
72286;SDS011;60221;45.696;16.076;2022-12-29T02:02:41;36.83;;;15.32;;
72286;SDS011;60221;45.696;16.076;2022-12-29T02:05:21;35.63;;;13.97;;
72286;SDS011;60221;45.696;16.076;2022-12-29T02:07:44;40.05;;;17.05;;
72286;SDS011;60221;45.696;16.076;2022-12-29T02:10:12;30.10;;;13.15;;
72286;SDS011;60221;45.696;16.076;2022-12-29T02:12:40;33.65;;;12.75;;
72286;SDS011;60221;45.696;16.076;2022-12-29T02:15:07;35.05;;;14.90;;
72286;SDS011;60221;45.696;16.076;2022-12-29T02:35:01;28.17;;;11.45;;
72286;SDS011;60221;45.696;16.076;2022-12-29T02:40:22;26.62;;;10.93;;
72286;SDS011;60221;45.696;16.076;2022-12-29T02:45:56;33.67;;;12.50;;
72286;SDS011;60221;45.696;16.076;2022-12-29T02:48:43;22.07;;;8.43;;
72286;SDS011;60221;45.696;16.076;2022-12-29T02:51:25;28.32;;;10.72;;
72286;SDS011;60221;45.696;16.076;2022-12-29T02:53:52;28.23;;;10.60;;
72286;SDS011;60221;45.696;16.076;2022-12-29T02:56:39;26.10;;;11.40;;
72286;SDS011;60221;45.696;16.076;2022-12-29T02:59:05;22.37;;;9.43;;
72286;SDS011;60221;45.696;16.076;2022-12-29T03:10:33;22.52;;;9.10;;
72286;SDS011;60221;45.696;16.076;2022-12-29T03:14:33;18.47;;;7.03;;
72286;SDS011;60221;45.696;16.076;2022-12-29T03:16:45;21.00;;;7.75;;
72286;SDS011;60221;45.696;16.076;2022-12-29T03:19:28;21.52;;;8.40;;
72286;SDS011;60221;45.696;16.076;2022-12-29T03:22:03;20.90;;;8.48;;
72286;SDS011;60221;45.696;16.076;2022-12-29T03:24:58;23.22;;;9.58;;
72286;SDS011;60221;45.696;16.076;2022-12-29T03:27:43;22.87;;;8.57;;
72286;SDS011;60221;45.696;16.076;2022-12-29T03:30:12;20.10;;;8.78;;
72286;SDS011;60221;45.696;16.076;2022-12-29T03:32:50;22.35;;;9.33;;
72286;SDS011;60221;45.696;16.076;2022-12-29T03:35:22;24.45;;;10.90;;
72286;SDS011;60221;45.696;16.076;2022-12-29T03:40:52;23.93;;;10.00;;
72286;SDS011;60221;45.696;16.076;2022-12-29T03:43:23;23.75;;;10.80;;
72286;SDS011;60221;45.696;16.076;2022-12-29T03:45:53;26.23;;;11.85;;
72286;SDS011;60221;45.696;16.076;2022-12-29T03:48:20;23.00;;;9.93;;
72286;SDS011;60221;45.696;16.076;2022-12-29T03:50:47;23.38;;;11.55;;
72286;SDS011;60221;45.696;16.076;2022-12-29T03:53:14;24.47;;;10.97;;
72286;SDS011;60221;45.696;16.076;2022-12-29T03:55:41;26.23;;;13.65;;
72286;SDS011;60221;45.696;16.076;2022-12-29T03:58:09;29.20;;;15.00;;
72286;SDS011;60221;45.696;16.076;2022-12-29T04:00:53;30.12;;;13.53;;
72286;SDS011;60221;45.696;16.076;2022-12-29T04:03:21;30.82;;;15.68;;
72286;SDS011;60221;45.696;16.076;2022-12-29T04:05:47;30.07;;;12.67;;
72286;SDS011;60221;45.696;16.076;2022-12-29T04:08:14;27.32;;;13.05;;
72286;SDS011;60221;45.696;16.076;2022-12-29T04:10:41;26.48;;;12.45;;
72286;SDS011;60221;45.696;16.076;2022-12-29T04:13:08;25.02;;;10.23;;
72286;SDS011;60221;45.696;16.076;2022-12-29T04:15:34;24.82;;;10.90;;
72286;SDS011;60221;45.696;16.076;2022-12-29T04:18:02;28.33;;;13.27;;
72286;SDS011;60221;45.696;16.076;2022-12-29T04:20:28;24.90;;;10.65;;
72286;SDS011;60221;45.696;16.076;2022-12-29T04:23:14;25.77;;;11.05;;
72286;SDS011;60221;45.696;16.076;2022-12-29T04:25:44;21.75;;;9.15;;
72286;SDS011;60221;45.696;16.076;2022-12-29T04:28:13;25.57;;;9.45;;
72286;SDS011;60221;45.696;16.076;2022-12-29T04:30:51;36.67;;;14.50;;
72286;SDS011;60221;45.696;16.076;2022-12-29T04:33:21;28.05;;;13.13;;
72286;SDS011;60221;45.696;16.076;2022-12-29T04:35:48;30.68;;;12.07;;
72286;SDS011;60221;45.696;16.076;2022-12-29T04:38:16;28.27;;;12.47;;
72286;SDS011;60221;45.696;16.076;2022-12-29T04:40:42;30.25;;;14.93;;
72286;SDS011;60221;45.696;16.076;2022-12-29T04:43:10;33.17;;;13.40;;
72286;SDS011;60221;45.696;16.076;2022-12-29T04:45:55;106.92;;;37.88;;
72286;SDS011;60221;45.696;16.076;2022-12-29T04:48:26;52.67;;;21.87;;
72286;SDS011;60221;45.696;16.076;2022-12-29T04:51:07;35.43;;;16.87;;
72286;SDS011;60221;45.696;16.076;2022-12-29T04:53:35;25.05;;;9.75;;
72286;SDS011;60221;45.696;16.076;2022-12-29T04:56:01;32.27;;;13.60;;
72286;SDS011;60221;45.696;16.076;2022-12-29T04:58:28;37.05;;;16.50;;
72286;SDS011;60221;45.696;16.076;2022-12-29T05:00:54;32.90;;;14.50;;
72286;SDS011;60221;45.696;16.076;2022-12-29T05:03:23;32.35;;;15.45;;
72286;SDS011;60221;45.696;16.076;2022-12-29T05:05:52;24.40;;;11.00;;
72286;SDS011;60221;45.696;16.076;2022-12-29T05:08:22;30.23;;;14.30;;
72286;SDS011;60221;45.696;16.076;2022-12-29T05:10:52;29.70;;;14.30;;
72286;SDS011;60221;45.696;16.076;2022-12-29T05:13:19;28.73;;;13.58;;
72286;SDS011;60221;45.696;16.076;2022-12-29T05:15:54;28.73;;;14.28;;
72286;SDS011;60221;45.696;16.076;2022-12-29T05:18:19;32.53;;;14.73;;
72286;SDS011;60221;45.696;16.076;2022-12-29T05:20:46;29.60;;;13.43;;
72286;SDS011;60221;45.696;16.076;2022-12-29T05:23:13;22.55;;;11.70;;
72286;SDS011;60221;45.696;16.076;2022-12-29T05:25:42;24.47;;;10.38;;
72286;SDS011;60221;45.696;16.076;2022-12-29T05:28:19;22.35;;;10.72;;
72286;SDS011;60221;45.696;16.076;2022-12-29T05:30:50;27.82;;;14.10;;
72286;SDS011;60221;45.696;16.076;2022-12-29T05:33:18;33.20;;;16.27;;
72286;SDS011;60221;45.696;16.076;2022-12-29T05:35:47;34.98;;;15.68;;
72286;SDS011;60221;45.696;16.076;2022-12-29T05:38:13;38.83;;;18.17;;
72286;SDS011;60221;45.696;16.076;2022-12-29T05:40:41;59.48;;;28.60;;
72286;SDS011;60221;45.696;16.076;2022-12-29T05:43:17;75.37;;;34.18;;
72286;SDS011;60221;45.696;16.076;2022-12-29T05:45:47;73.53;;;32.57;;
72286;SDS011;60221;45.696;16.076;2022-12-29T05:48:24;52.08;;;23.02;;
72286;SDS011;60221;45.696;16.076;2022-12-29T05:50:55;66.53;;;26.85;;
72286;SDS011;60221;45.696;16.076;2022-12-29T05:53:24;56.15;;;23.22;;
72286;SDS011;60221;45.696;16.076;2022-12-29T05:55:50;76.95;;;32.35;;
72286;SDS011;60221;45.696;16.076;2022-12-29T05:58:17;60.53;;;27.77;;
72286;SDS011;60221;45.696;16.076;2022-12-29T06:00:43;59.70;;;26.68;;
72286;SDS011;60221;45.696;16.076;2022-12-29T06:03:11;57.05;;;25.40;;
72286;SDS011;60221;45.696;16.076;2022-12-29T06:05:38;52.40;;;24.23;;
72286;SDS011;60221;45.696;16.076;2022-12-29T06:08:04;75.75;;;34.50;;
72286;SDS011;60221;45.696;16.076;2022-12-29T06:10:31;51.80;;;24.10;;
72286;SDS011;60221;45.696;16.076;2022-12-29T06:12:59;65.08;;;29.40;;
72286;SDS011;60221;45.696;16.076;2022-12-29T06:15:26;53.65;;;24.27;;
72286;SDS011;60221;45.696;16.076;2022-12-29T06:17:53;44.18;;;20.43;;
72286;SDS011;60221;45.696;16.076;2022-12-29T06:20:21;37.60;;;17.62;;
72286;SDS011;60221;45.696;16.076;2022-12-29T06:22:48;45.03;;;22.23;;
72286;SDS011;60221;45.696;16.076;2022-12-29T06:25:15;44.33;;;22.20;;
72286;SDS011;60221;45.696;16.076;2022-12-29T06:27:43;53.13;;;22.32;;
72286;SDS011;60221;45.696;16.076;2022-12-29T06:30:10;56.95;;;24.37;;
72286;SDS011;60221;45.696;16.076;2022-12-29T06:32:39;44.35;;;20.97;;
72286;SDS011;60221;45.696;16.076;2022-12-29T06:35:08;49.13;;;21.97;;
72286;SDS011;60221;45.696;16.076;2022-12-29T06:37:37;43.02;;;19.02;;
72286;SDS011;60221;45.696;16.076;2022-12-29T06:40:04;39.53;;;17.37;;
72286;SDS011;60221;45.696;16.076;2022-12-29T06:42:34;40.17;;;18.62;;
72286;SDS011;60221;45.696;16.076;2022-12-29T06:45:12;53.33;;;23.20;;
72286;SDS011;60221;45.696;16.076;2022-12-29T06:47:38;56.07;;;26.93;;
72286;SDS011;60221;45.696;16.076;2022-12-29T06:50:05;44.65;;;19.55;;
72286;SDS011;60221;45.696;16.076;2022-12-29T06:52:33;45.43;;;21.93;;
72286;SDS011;60221;45.696;16.076;2022-12-29T06:54:59;47.33;;;22.37;;
72286;SDS011;60221;45.696;16.076;2022-12-29T06:57:25;37.73;;;16.27;;
72286;SDS011;60221;45.696;16.076;2022-12-29T06:59:52;38.23;;;17.93;;
72286;SDS011;60221;45.696;16.076;2022-12-29T07:02:20;33.73;;;15.93;;
72286;SDS011;60221;45.696;16.076;2022-12-29T07:04:47;41.53;;;19.02;;
72286;SDS011;60221;45.696;16.076;2022-12-29T07:07:13;40.45;;;20.70;;
72286;SDS011;60221;45.696;16.076;2022-12-29T07:09:39;32.30;;;15.75;;
72286;SDS011;60221;45.696;16.076;2022-12-29T07:12:06;36.57;;;15.80;;
72286;SDS011;60221;45.696;16.076;2022-12-29T07:14:32;35.63;;;17.85;;
72286;SDS011;60221;45.696;16.076;2022-12-29T07:16:59;32.00;;;16.87;;
72286;SDS011;60221;45.696;16.076;2022-12-29T07:19:25;34.05;;;17.23;;
72286;SDS011;60221;45.696;16.076;2022-12-29T07:21:51;34.83;;;16.00;;
72286;SDS011;60221;45.696;16.076;2022-12-29T07:24:20;35.67;;;17.97;;
72286;SDS011;60221;45.696;16.076;2022-12-29T07:26:47;35.78;;;15.68;;
72286;SDS011;60221;45.696;16.076;2022-12-29T07:29:13;39.67;;;19.42;;
72286;SDS011;60221;45.696;16.076;2022-12-29T07:31:40;32.48;;;14.70;;
72286;SDS011;60221;45.696;16.076;2022-12-29T07:34:07;29.05;;;12.03;;
72286;SDS011;60221;45.696;16.076;2022-12-29T07:36:35;36.53;;;17.57;;
72286;SDS011;60221;45.696;16.076;2022-12-29T07:39:01;30.20;;;14.95;;
72286;SDS011;60221;45.696;16.076;2022-12-29T07:41:29;33.08;;;16.12;;
72286;SDS011;60221;45.696;16.076;2022-12-29T07:43:56;33.42;;;15.40;;
72286;SDS011;60221;45.696;16.076;2022-12-29T07:46:24;39.08;;;18.27;;
72286;SDS011;60221;45.696;16.076;2022-12-29T07:48:50;40.87;;;20.00;;
72286;SDS011;60221;45.696;16.076;2022-12-29T07:51:17;36.25;;;18.35;;
72286;SDS011;60221;45.696;16.076;2022-12-29T07:53:43;39.53;;;22.37;;
72286;SDS011;60221;45.696;16.076;2022-12-29T07:56:09;35.20;;;19.70;;
72286;SDS011;60221;45.696;16.076;2022-12-29T07:58:36;54.67;;;27.30;;
72286;SDS011;60221;45.696;16.076;2022-12-29T08:01:02;61.00;;;30.00;;
72286;SDS011;60221;45.696;16.076;2022-12-29T08:03:29;59.53;;;28.67;;
72286;SDS011;60221;45.696;16.076;2022-12-29T08:05:56;52.25;;;27.05;;
72286;SDS011;60221;45.696;16.076;2022-12-29T08:08:22;46.45;;;25.30;;
72286;SDS011;60221;45.696;16.076;2022-12-29T08:10:49;41.73;;;19.90;;
72286;SDS011;60221;45.696;16.076;2022-12-29T08:13:15;48.73;;;25.33;;
72286;SDS011;60221;45.696;16.076;2022-12-29T08:15:42;62.10;;;30.75;;
72286;SDS011;60221;45.696;16.076;2022-12-29T08:18:08;41.77;;;20.05;;
72286;SDS011;60221;45.696;16.076;2022-12-29T08:20:35;41.90;;;19.50;;
72286;SDS011;60221;45.696;16.076;2022-12-29T08:23:01;54.73;;;24.43;;
72286;SDS011;60221;45.696;16.076;2022-12-29T08:25:28;135.93;;;44.77;;
72286;SDS011;60221;45.696;16.076;2022-12-29T08:27:54;114.15;;;41.28;;
72286;SDS011;60221;45.696;16.076;2022-12-29T08:30:21;72.53;;;28.23;;
72286;SDS011;60221;45.696;16.076;2022-12-29T08:32:49;61.92;;;23.15;;
72286;SDS011;60221;45.696;16.076;2022-12-29T08:35:16;55.60;;;24.80;;
72286;SDS011;60221;45.696;16.076;2022-12-29T08:37:42;63.43;;;30.03;;
72286;SDS011;60221;45.696;16.076;2022-12-29T08:40:09;61.83;;;30.30;;
72286;SDS011;60221;45.696;16.076;2022-12-29T08:42:36;64.40;;;32.35;;
72286;SDS011;60221;45.696;16.076;2022-12-29T08:45:02;53.78;;;29.27;;
72286;SDS011;60221;45.696;16.076;2022-12-29T08:47:30;46.02;;;24.05;;
72286;SDS011;60221;45.696;16.076;2022-12-29T08:49:56;35.00;;;18.13;;
72286;SDS011;60221;45.696;16.076;2022-12-29T08:52:23;27.40;;;14.45;;
72286;SDS011;60221;45.696;16.076;2022-12-29T08:54:49;28.27;;;15.13;;
72286;SDS011;60221;45.696;16.076;2022-12-29T08:57:16;34.95;;;17.30;;
72286;SDS011;60221;45.696;16.076;2022-12-29T08:59:44;35.52;;;18.48;;
72286;SDS011;60221;45.696;16.076;2022-12-29T09:02:12;45.20;;;22.80;;
72286;SDS011;60221;45.696;16.076;2022-12-29T09:04:39;39.03;;;19.35;;
72286;SDS011;60221;45.696;16.076;2022-12-29T09:07:05;48.52;;;22.93;;
72286;SDS011;60221;45.696;16.076;2022-12-29T09:09:32;36.93;;;19.50;;
72286;SDS011;60221;45.696;16.076;2022-12-29T09:11:59;38.83;;;20.35;;
72286;SDS011;60221;45.696;16.076;2022-12-29T09:14:26;34.40;;;16.80;;
72286;SDS011;60221;45.696;16.076;2022-12-29T09:16:53;36.98;;;18.50;;
72286;SDS011;60221;45.696;16.076;2022-12-29T09:19:38;37.95;;;18.75;;
72286;SDS011;60221;45.696;16.076;2022-12-29T09:22:04;36.17;;;18.60;;
72286;SDS011;60221;45.696;16.076;2022-12-29T09:24:31;27.70;;;14.83;;
72286;SDS011;60221;45.696;16.076;2022-12-29T09:26:57;38.23;;;20.27;;
72286;SDS011;60221;45.696;16.076;2022-12-29T09:29:23;32.38;;;18.55;;
72286;SDS011;60221;45.696;16.076;2022-12-29T09:31:50;30.48;;;17.45;;
72286;SDS011;60221;45.696;16.076;2022-12-29T09:34:17;38.55;;;20.88;;
72286;SDS011;60221;45.696;16.076;2022-12-29T09:36:43;39.35;;;20.80;;
72286;SDS011;60221;45.696;16.076;2022-12-29T09:39:09;34.20;;;19.13;;
72286;SDS011;60221;45.696;16.076;2022-12-29T09:47:13;36.68;;;20.50;;
72286;SDS011;60221;45.696;16.076;2022-12-29T09:52:28;42.50;;;23.13;;
72286;SDS011;60221;45.696;16.076;2022-12-29T09:55:02;35.88;;;18.90;;
72286;SDS011;60221;45.696;16.076;2022-12-29T09:57:43;26.27;;;12.65;;
72286;SDS011;60221;45.696;16.076;2022-12-29T10:03:09;23.57;;;13.05;;
72286;SDS011;60221;45.696;16.076;2022-12-29T10:05:48;29.17;;;13.43;;
72286;SDS011;60221;45.696;16.076;2022-12-29T10:08:41;41.92;;;18.80;;
72286;SDS011;60221;45.696;16.076;2022-12-29T10:14:36;44.38;;;20.50;;
72286;SDS011;60221;45.696;16.076;2022-12-29T10:25:39;25.02;;;13.35;;
72286;SDS011;60221;45.696;16.076;2022-12-29T10:28:21;23.02;;;12.30;;
72286;SDS011;60221;45.696;16.076;2022-12-29T10:30:51;21.70;;;12.25;;
72286;SDS011;60221;45.696;16.076;2022-12-29T10:33:21;20.57;;;9.67;;
72286;SDS011;60221;45.696;16.076;2022-12-29T10:35:55;18.82;;;8.88;;
72286;SDS011;60221;45.696;16.076;2022-12-29T10:38:27;19.62;;;8.90;;
72286;SDS011;60221;45.696;16.076;2022-12-29T10:41:23;18.98;;;9.35;;
72286;SDS011;60221;45.696;16.076;2022-12-29T10:43:54;19.95;;;10.80;;
72286;SDS011;60221;45.696;16.076;2022-12-29T10:46:25;18.43;;;10.57;;
72286;SDS011;60221;45.696;16.076;2022-12-29T10:48:55;17.65;;;8.63;;
72286;SDS011;60221;45.696;16.076;2022-12-29T10:51:25;17.57;;;10.00;;
72286;SDS011;60221;45.696;16.076;2022-12-29T10:57:01;43.87;;;20.65;;
72286;SDS011;60221;45.696;16.076;2022-12-29T10:59:36;86.83;;;38.87;;
72286;SDS011;60221;45.696;16.076;2022-12-29T11:07:24;45.10;;;24.60;;
72286;SDS011;60221;45.696;16.076;2022-12-29T11:09:51;29.90;;;15.15;;
72286;SDS011;60221;45.696;16.076;2022-12-29T11:12:19;38.63;;;17.73;;
72286;SDS011;60221;45.696;16.076;2022-12-29T11:17:51;47.30;;;25.30;;
72286;SDS011;60221;45.696;16.076;2022-12-29T11:23:04;33.00;;;19.02;;
72286;SDS011;60221;45.696;16.076;2022-12-29T11:28:43;27.93;;;15.45;;
72286;SDS011;60221;45.696;16.076;2022-12-29T11:31:16;29.87;;;17.90;;
72286;SDS011;60221;45.696;16.076;2022-12-29T11:33:45;31.45;;;16.87;;
72286;SDS011;60221;45.696;16.076;2022-12-29T11:36:14;31.85;;;16.37;;
72286;SDS011;60221;45.696;16.076;2022-12-29T11:38:53;30.80;;;17.23;;
72286;SDS011;60221;45.696;16.076;2022-12-29T11:41:30;42.62;;;20.25;;
72286;SDS011;60221;45.696;16.076;2022-12-29T11:44:02;32.65;;;16.45;;
72286;SDS011;60221;45.696;16.076;2022-12-29T11:46:32;49.85;;;27.45;;
72286;SDS011;60221;45.696;16.076;2022-12-29T11:49:03;47.70;;;21.97;;
72286;SDS011;60221;45.696;16.076;2022-12-29T11:51:38;45.93;;;21.93;;
72286;SDS011;60221;45.696;16.076;2022-12-29T11:54:29;52.45;;;24.57;;
72286;SDS011;60221;45.696;16.076;2022-12-29T11:56:48;38.73;;;20.20;;
72286;SDS011;60221;45.696;16.076;2022-12-29T12:02:18;41.28;;;20.12;;
72286;SDS011;60221;45.696;16.076;2022-12-29T12:05:05;27.77;;;13.70;;
72286;SDS011;60221;45.696;16.076;2022-12-29T12:07:47;32.35;;;16.67;;
72286;SDS011;60221;45.696;16.076;2022-12-29T12:10:28;27.93;;;14.40;;
72286;SDS011;60221;45.696;16.076;2022-12-29T12:15:39;41.58;;;17.30;;
72286;SDS011;60221;45.696;16.076;2022-12-29T12:21:10;36.77;;;15.90;;
72286;SDS011;60221;45.696;16.076;2022-12-29T12:26:58;20.72;;;9.93;;
72286;SDS011;60221;45.696;16.076;2022-12-29T12:32:40;14.77;;;6.53;;
72286;SDS011;60221;45.696;16.076;2022-12-29T12:35:20;11.12;;;4.72;;
72286;SDS011;60221;45.696;16.076;2022-12-29T12:43:46;6.53;;;2.87;;
72286;SDS011;60221;45.696;16.076;2022-12-29T13:01:00;5.57;;;1.60;;
72286;SDS011;60221;45.696;16.076;2022-12-29T13:03:47;6.25;;;1.55;;
72286;SDS011;60221;45.696;16.076;2022-12-29T13:06:38;7.10;;;2.37;;
72286;SDS011;60221;45.696;16.076;2022-12-29T13:15:32;8.37;;;3.83;;
72286;SDS011;60221;45.696;16.076;2022-12-29T13:27:01;12.88;;;6.58;;
72286;SDS011;60221;45.696;16.076;2022-12-29T13:29:56;6.30;;;2.63;;
72286;SDS011;60221;45.696;16.076;2022-12-29T13:32:35;8.38;;;2.20;;
72286;SDS011;60221;45.696;16.076;2022-12-29T13:40:55;7.08;;;1.90;;
72286;SDS011;60221;45.696;16.076;2022-12-29T13:43:28;5.40;;;1.80;;
72286;SDS011;60221;45.696;16.076;2022-12-29T13:46:01;6.30;;;1.50;;
72286;SDS011;60221;45.696;16.076;2022-12-29T13:48:50;5.78;;;1.35;;
72286;SDS011;60221;45.696;16.076;2022-12-29T13:51:26;4.95;;;1.20;;
72286;SDS011;60221;45.696;16.076;2022-12-29T13:53:59;5.10;;;1.30;;
72286;SDS011;60221;45.696;16.076;2022-12-29T14:05:02;6.62;;;1.22;;
72286;SDS011;60221;45.696;16.076;2022-12-29T14:07:36;5.37;;;1.30;;
72286;SDS011;60221;45.696;16.076;2022-12-29T14:10:05;6.07;;;1.47;;
72286;SDS011;60221;45.696;16.076;2022-12-29T14:12:37;4.75;;;1.60;;
72286;SDS011;60221;45.696;16.076;2022-12-29T14:17:42;6.33;;;1.62;;
72286;SDS011;60221;45.696;16.076;2022-12-29T14:20:17;7.87;;;1.60;;
72286;SDS011;60221;45.696;16.076;2022-12-29T14:22:58;4.47;;;1.00;;
72286;SDS011;60221;45.696;16.076;2022-12-29T14:28:33;5.12;;;1.40;;
72286;SDS011;60221;45.696;16.076;2022-12-29T14:36:42;6.87;;;1.90;;
72286;SDS011;60221;45.696;16.076;2022-12-29T14:39:42;8.38;;;1.50;;
72286;SDS011;60221;45.696;16.076;2022-12-29T14:42:15;5.40;;;1.50;;
72286;SDS011;60221;45.696;16.076;2022-12-29T14:47:44;6.60;;;1.32;;
72286;SDS011;60221;45.696;16.076;2022-12-29T14:50:17;6.60;;;1.47;;
72286;SDS011;60221;45.696;16.076;2022-12-29T14:58:29;5.00;;;1.22;;
72286;SDS011;60221;45.696;16.076;2022-12-29T15:01:12;3.95;;;0.68;;
72286;SDS011;60221;45.696;16.076;2022-12-29T15:06:50;3.77;;;0.73;;
72286;SDS011;60221;45.696;16.076;2022-12-29T15:09:23;4.97;;;0.88;;
72286;SDS011;60221;45.696;16.076;2022-12-29T15:12:01;6.00;;;0.78;;
72286;SDS011;60221;45.696;16.076;2022-12-29T15:14:54;5.05;;;0.88;;
72286;SDS011;60221;45.696;16.076;2022-12-29T15:17:28;4.85;;;0.90;;
72286;SDS011;60221;45.696;16.076;2022-12-29T15:19:59;5.27;;;0.73;;
72286;SDS011;60221;45.696;16.076;2022-12-29T15:22:43;3.22;;;0.60;;
72286;SDS011;60221;45.696;16.076;2022-12-29T15:25:16;4.17;;;0.60;;
72286;SDS011;60221;45.696;16.076;2022-12-29T15:27:48;3.58;;;0.60;;
72286;SDS011;60221;45.696;16.076;2022-12-29T15:30:21;3.30;;;0.50;;
72286;SDS011;60221;45.696;16.076;2022-12-29T15:32:49;3.53;;;0.70;;
72286;SDS011;60221;45.696;16.076;2022-12-29T15:35:38;4.85;;;0.50;;
72286;SDS011;60221;45.696;16.076;2022-12-29T15:38:12;2.77;;;0.47;;
72286;SDS011;60221;45.696;16.076;2022-12-29T15:40:44;4.45;;;1.07;;
72286;SDS011;60221;45.696;16.076;2022-12-29T15:46:03;2.50;;;0.40;;
72286;SDS011;60221;45.696;16.076;2022-12-29T15:48:30;3.52;;;0.78;;
72286;SDS011;60221;45.696;16.076;2022-12-29T15:50:58;4.95;;;0.57;;
72286;SDS011;60221;45.696;16.076;2022-12-29T15:53:27;2.67;;;0.35;;
72286;SDS011;60221;45.696;16.076;2022-12-29T15:55:59;4.00;;;0.50;;
72286;SDS011;60221;45.696;16.076;2022-12-29T15:58:43;3.20;;;0.47;;
72286;SDS011;60221;45.696;16.076;2022-12-29T16:01:23;4.97;;;0.55;;
72286;SDS011;60221;45.696;16.076;2022-12-29T16:03:59;3.17;;;0.47;;
72286;SDS011;60221;45.696;16.076;2022-12-29T16:06:37;5.55;;;0.60;;
72286;SDS011;60221;45.696;16.076;2022-12-29T16:09:11;5.33;;;0.47;;
72286;SDS011;60221;45.696;16.076;2022-12-29T16:11:46;5.10;;;0.67;;
72286;SDS011;60221;45.696;16.076;2022-12-29T16:17:11;5.12;;;0.90;;
72286;SDS011;60221;45.696;16.076;2022-12-29T16:19:54;4.95;;;0.62;;
72286;SDS011;60221;45.696;16.076;2022-12-29T16:22:31;4.17;;;0.60;;
72286;SDS011;60221;45.696;16.076;2022-12-29T16:28:01;7.90;;;1.98;;
72286;SDS011;60221;45.696;16.076;2022-12-29T16:30:32;5.72;;;1.25;;
72286;SDS011;60221;45.696;16.076;2022-12-29T16:33:01;4.42;;;0.80;;
72286;SDS011;60221;45.696;16.076;2022-12-29T16:38:13;5.10;;;0.50;;
72286;SDS011;60221;45.696;16.076;2022-12-29T16:40:51;4.12;;;0.60;;
72286;SDS011;60221;45.696;16.076;2022-12-29T16:43:30;3.15;;;0.40;;
72286;SDS011;60221;45.696;16.076;2022-12-29T16:48:52;3.98;;;0.57;;
72286;SDS011;60221;45.696;16.076;2022-12-29T16:51:28;2.63;;;0.40;;
72286;SDS011;60221;45.696;16.076;2022-12-29T16:53:59;3.72;;;0.68;;
72286;SDS011;60221;45.696;16.076;2022-12-29T16:56:29;5.45;;;0.70;;
72286;SDS011;60221;45.696;16.076;2022-12-29T16:59:03;4.80;;;1.52;;
72286;SDS011;60221;45.696;16.076;2022-12-29T17:01:40;3.83;;;0.70;;
72286;SDS011;60221;45.696;16.076;2022-12-29T17:04:06;3.63;;;0.47;;
72286;SDS011;60221;45.696;16.076;2022-12-29T17:06:37;4.05;;;0.65;;
72286;SDS011;60221;45.696;16.076;2022-12-29T17:09:17;3.52;;;0.47;;
72286;SDS011;60221;45.696;16.076;2022-12-29T17:11:47;7.53;;;0.85;;
72286;SDS011;60221;45.696;16.076;2022-12-29T17:20:05;7.12;;;1.17;;
72286;SDS011;60221;45.696;16.076;2022-12-29T17:22:45;4.25;;;0.80;;
72286;SDS011;60221;45.696;16.076;2022-12-29T17:25:13;3.80;;;0.50;;
72286;SDS011;60221;45.696;16.076;2022-12-29T17:27:47;4.10;;;0.68;;
72286;SDS011;60221;45.696;16.076;2022-12-29T17:30:27;4.50;;;0.80;;
72286;SDS011;60221;45.696;16.076;2022-12-29T17:33:00;4.45;;;0.47;;
72286;SDS011;60221;45.696;16.076;2022-12-29T17:35:30;3.65;;;1.10;;
72286;SDS011;60221;45.696;16.076;2022-12-29T17:37:57;5.20;;;0.80;;
72286;SDS011;60221;45.696;16.076;2022-12-29T17:40:24;3.62;;;0.60;;
72286;SDS011;60221;45.696;16.076;2022-12-29T17:42:55;4.17;;;1.07;;
72286;SDS011;60221;45.696;16.076;2022-12-29T17:45:28;4.80;;;0.95;;
72286;SDS011;60221;45.696;16.076;2022-12-29T17:47:57;4.22;;;0.60;;